INDIA METEOROLOGICAL DEPARTMENT, R.M.C. NEW DELHI
Dated:25 - 5 - 2018
METARS OF ALTERNATE AIRPORTS
Delhi      
VIDP 250430Z 25007KT 3500 HZ NSC 39/04 Q1005 NOSIG=
Amritsar   
VIAR 250430Z VRB02KT 6000 NSC 36/11 Q1005 NOSIG=
Lucknow    
VILK 250430Z 25004KT 3000 HZ NSC 39/21 Q1003 NOSIG=
Jaipur     
VIJP 250430Z 13003KT 2500 HZ FEW035 SCT100 38/07 Q1006 BECMG 3000 HZ=
Ahmedabad  
VAAH 250430Z 27007KT 5000 FU NSC 34/23 Q1007 BECMG 6000=
Udaipur    
VAUD 250400Z 00000KT 6000 FEW030 35/10 Q1008 NOSIG=
Mumbai     
VABB 250430Z 30006KT 5000 HZ FEW018 SCT025 32/24 Q1008 NOSIG=